sensor_id;sensor_type;location;lat;lon;timestamp;temperature;humidity
22416;DHT22;12204;50.600;4.608;2022-07-23T00:00:02;25.80;61.60
22416;DHT22;12204;50.600;4.608;2022-07-23T00:05:09;25.80;61.40
22416;DHT22;12204;50.600;4.608;2022-07-23T00:10:13;25.80;61.20
22416;DHT22;12204;50.600;4.608;2022-07-23T00:15:17;25.80;61.10
22416;DHT22;12204;50.600;4.608;2022-07-23T00:20:23;25.80;61.10
22416;DHT22;12204;50.600;4.608;2022-07-23T00:25:26;25.70;60.80
22416;DHT22;12204;50.600;4.608;2022-07-23T00:30:33;25.70;60.90
22416;DHT22;12204;50.600;4.608;2022-07-23T00:35:39;25.70;60.60
22416;DHT22;12204;50.600;4.608;2022-07-23T00:40:43;25.70;60.50
22416;DHT22;12204;50.600;4.608;2022-07-23T00:45:47;25.70;60.30
22416;DHT22;12204;50.600;4.608;2022-07-23T00:50:53;25.70;60.20
22416;DHT22;12204;50.600;4.608;2022-07-23T00:55:57;25.70;60.10
22416;DHT22;12204;50.600;4.608;2022-07-23T01:01:01;25.70;59.90
22416;DHT22;12204;50.600;4.608;2022-07-23T01:06:07;25.70;59.90
22416;DHT22;12204;50.600;4.608;2022-07-23T01:11:11;25.70;59.80
22416;DHT22;12204;50.600;4.608;2022-07-23T01:16:15;25.70;59.70
22416;DHT22;12204;50.600;4.608;2022-07-23T01:21:21;25.70;59.70
22416;DHT22;12204;50.600;4.608;2022-07-23T01:26:27;25.70;59.60
22416;DHT22;12204;50.600;4.608;2022-07-23T01:31:31;25.70;59.60
22416;DHT22;12204;50.600;4.608;2022-07-23T01:36:35;25.70;59.60
22416;DHT22;12204;50.600;4.608;2022-07-23T01:41:41;25.70;59.70
22416;DHT22;12204;50.600;4.608;2022-07-23T01:46:48;25.70;59.40
22416;DHT22;12204;50.600;4.608;2022-07-23T01:51:54;25.70;59.30
22416;DHT22;12204;50.600;4.608;2022-07-23T01:57:11;25.60;59.20
22416;DHT22;12204;50.600;4.608;2022-07-23T02:02:15;25.60;59.20
22416;DHT22;12204;50.600;4.608;2022-07-23T02:07:19;25.60;59.10
22416;DHT22;12204;50.600;4.608;2022-07-23T02:12:24;25.70;59.20
22416;DHT22;12204;50.600;4.608;2022-07-23T02:17:27;25.60;59.00
22416;DHT22;12204;50.600;4.608;2022-07-23T02:22:31;25.60;59.00
22416;DHT22;12204;50.600;4.608;2022-07-23T02:27:37;25.60;58.90
22416;DHT22;12204;50.600;4.608;2022-07-23T02:32:41;25.60;59.60
22416;DHT22;12204;50.600;4.608;2022-07-23T02:37:45;25.60;59.00
22416;DHT22;12204;50.600;4.608;2022-07-23T02:42:53;25.60;58.90
22416;DHT22;12204;50.600;4.608;2022-07-23T02:47:57;25.60;58.90
22416;DHT22;12204;50.600;4.608;2022-07-23T02:53:01;25.60;59.00
22416;DHT22;12204;50.600;4.608;2022-07-23T02:58:06;25.60;58.90
22416;DHT22;12204;50.600;4.608;2022-07-23T03:03:10;25.60;58.90
22416;DHT22;12204;50.600;4.608;2022-07-23T03:08:14;25.60;58.80
22416;DHT22;12204;50.600;4.608;2022-07-23T03:13:24;25.50;58.80
22416;DHT22;12204;50.600;4.608;2022-07-23T03:18:28;25.50;58.70
22416;DHT22;12204;50.600;4.608;2022-07-23T03:23:31;25.60;58.80
22416;DHT22;12204;50.600;4.608;2022-07-23T03:28:37;25.50;58.60
22416;DHT22;12204;50.600;4.608;2022-07-23T03:33:41;25.50;58.80
22416;DHT22;12204;50.600;4.608;2022-07-23T03:38:45;25.50;58.60
22416;DHT22;12204;50.600;4.608;2022-07-23T03:43:51;25.50;58.50
22416;DHT22;12204;50.600;4.608;2022-07-23T03:48:54;25.50;58.60
22416;DHT22;12204;50.600;4.608;2022-07-23T03:54:00;25.50;58.50
22416;DHT22;12204;50.600;4.608;2022-07-23T03:59:05;25.50;58.40
22416;DHT22;12204;50.600;4.608;2022-07-23T04:04:09;25.50;58.30
22416;DHT22;12204;50.600;4.608;2022-07-23T04:09:15;25.50;58.30
22416;DHT22;12204;50.600;4.608;2022-07-23T04:14:20;25.50;58.30
22416;DHT22;12204;50.600;4.608;2022-07-23T04:19:24;25.50;58.20
22416;DHT22;12204;50.600;4.608;2022-07-23T04:24:35;25.50;58.20
22416;DHT22;12204;50.600;4.608;2022-07-23T04:29:40;25.50;58.20
22416;DHT22;12204;50.600;4.608;2022-07-23T04:34:44;25.50;58.20
22416;DHT22;12204;50.600;4.608;2022-07-23T04:39:47;25.50;58.20
22416;DHT22;12204;50.600;4.608;2022-07-23T04:44:53;25.50;58.10
22416;DHT22;12204;50.600;4.608;2022-07-23T04:49:58;25.50;58.20
22416;DHT22;12204;50.600;4.608;2022-07-23T04:55:02;25.50;58.30
22416;DHT22;12204;50.600;4.608;2022-07-23T05:00:10;25.50;58.30
22416;DHT22;12204;50.600;4.608;2022-07-23T05:05:15;25.50;58.30
22416;DHT22;12204;50.600;4.608;2022-07-23T05:10:19;25.50;58.20
22416;DHT22;12204;50.600;4.608;2022-07-23T05:15:24;25.50;58.30
22416;DHT22;12204;50.600;4.608;2022-07-23T05:20:29;25.40;58.20
22416;DHT22;12204;50.600;4.608;2022-07-23T05:25:32;25.50;58.40
22416;DHT22;12204;50.600;4.608;2022-07-23T05:30:38;25.40;58.40
22416;DHT22;12204;50.600;4.608;2022-07-23T05:35:45;25.40;58.60
22416;DHT22;12204;50.600;4.608;2022-07-23T05:41:03;25.40;58.70
22416;DHT22;12204;50.600;4.608;2022-07-23T05:46:08;25.40;58.90
22416;DHT22;12204;50.600;4.608;2022-07-23T05:51:20;25.40;59.00
22416;DHT22;12204;50.600;4.608;2022-07-23T05:56:24;25.40;59.10
22416;DHT22;12204;50.600;4.608;2022-07-23T06:01:30;25.40;59.30
22416;DHT22;12204;50.600;4.608;2022-07-23T06:06:42;25.50;59.40
22416;DHT22;12204;50.600;4.608;2022-07-23T06:11:46;25.40;59.50
22416;DHT22;12204;50.600;4.608;2022-07-23T06:16:51;25.40;59.60
22416;DHT22;12204;50.600;4.608;2022-07-23T06:21:56;25.40;59.70
22416;DHT22;12204;50.600;4.608;2022-07-23T06:27:02;25.40;59.90
22416;DHT22;12204;50.600;4.608;2022-07-23T06:32:08;25.40;60.10
22416;DHT22;12204;50.600;4.608;2022-07-23T06:37:11;25.40;60.20
22416;DHT22;12204;50.600;4.608;2022-07-23T06:42:16;25.40;60.30
22416;DHT22;12204;50.600;4.608;2022-07-23T06:47:26;25.40;60.50
22416;DHT22;12204;50.600;4.608;2022-07-23T06:52:30;25.40;60.70
22416;DHT22;12204;50.600;4.608;2022-07-23T06:57:34;25.50;61.00
22416;DHT22;12204;50.600;4.608;2022-07-23T07:02:39;25.50;61.20
22416;DHT22;12204;50.600;4.608;2022-07-23T07:07:43;25.40;61.20
22416;DHT22;12204;50.600;4.608;2022-07-23T07:12:47;25.40;61.50
22416;DHT22;12204;50.600;4.608;2022-07-23T07:17:52;25.50;61.70
22416;DHT22;12204;50.600;4.608;2022-07-23T07:22:55;25.50;61.70
22416;DHT22;12204;50.600;4.608;2022-07-23T07:27:59;25.50;61.90
22416;DHT22;12204;50.600;4.608;2022-07-23T07:33:04;25.50;62.00
22416;DHT22;12204;50.600;4.608;2022-07-23T07:38:08;25.50;62.40
22416;DHT22;12204;50.600;4.608;2022-07-23T07:43:12;25.50;62.60
22416;DHT22;12204;50.600;4.608;2022-07-23T07:48:17;25.40;62.60
22416;DHT22;12204;50.600;4.608;2022-07-23T07:53:20;25.50;62.60
22416;DHT22;12204;50.600;4.608;2022-07-23T07:58:26;25.40;62.60
22416;DHT22;12204;50.600;4.608;2022-07-23T08:03:32;25.40;62.60
22416;DHT22;12204;50.600;4.608;2022-07-23T08:08:38;25.40;62.60
22416;DHT22;12204;50.600;4.608;2022-07-23T08:13:42;25.40;62.60
22416;DHT22;12204;50.600;4.608;2022-07-23T08:18:47;25.50;62.60
22416;DHT22;12204;50.600;4.608;2022-07-23T08:23:51;25.40;62.50
22416;DHT22;12204;50.600;4.608;2022-07-23T08:28:55;25.40;62.50
22416;DHT22;12204;50.600;4.608;2022-07-23T08:34:00;25.40;62.60
22416;DHT22;12204;50.600;4.608;2022-07-23T08:39:05;25.50;62.60
22416;DHT22;12204;50.600;4.608;2022-07-23T08:44:09;25.40;62.60
22416;DHT22;12204;50.600;4.608;2022-07-23T08:49:14;25.50;62.80
22416;DHT22;12204;50.600;4.608;2022-07-23T08:54:18;25.50;62.80
22416;DHT22;12204;50.600;4.608;2022-07-23T08:59:21;25.50;63.30
22416;DHT22;12204;50.600;4.608;2022-07-23T09:04:27;25.50;64.00
22416;DHT22;12204;50.600;4.608;2022-07-23T09:09:30;25.60;64.80
22416;DHT22;12204;50.600;4.608;2022-07-23T09:14:39;25.70;64.40
22416;DHT22;12204;50.600;4.608;2022-07-23T09:19:46;25.90;64.70
22416;DHT22;12204;50.600;4.608;2022-07-23T09:25:05;25.90;64.30
22416;DHT22;12204;50.600;4.608;2022-07-23T09:30:12;25.80;64.30
22416;DHT22;12204;50.600;4.608;2022-07-23T09:35:17;25.70;64.70
22416;DHT22;12204;50.600;4.608;2022-07-23T09:40:21;25.70;64.50
22416;DHT22;12204;50.600;4.608;2022-07-23T09:45:25;25.70;64.40
22416;DHT22;12204;50.600;4.608;2022-07-23T09:50:30;25.70;64.00
22416;DHT22;12204;50.600;4.608;2022-07-23T09:55:35;25.70;64.20
22416;DHT22;12204;50.600;4.608;2022-07-23T10:00:40;25.60;63.80
22416;DHT22;12204;50.600;4.608;2022-07-23T10:05:48;25.70;63.70
22416;DHT22;12204;50.600;4.608;2022-07-23T10:11:15;25.60;63.70
22416;DHT22;12204;50.600;4.608;2022-07-23T10:16:49;25.70;64.10
22416;DHT22;12204;50.600;4.608;2022-07-23T10:22:13;25.60;63.20
22416;DHT22;12204;50.600;4.608;2022-07-23T10:27:48;25.60;63.50
22416;DHT22;12204;50.600;4.608;2022-07-23T10:33:38;25.60;64.10
22416;DHT22;12204;50.600;4.608;2022-07-23T10:39:19;25.60;64.30
22416;DHT22;12204;50.600;4.608;2022-07-23T10:44:44;25.60;64.90
22416;DHT22;12204;50.600;4.608;2022-07-23T10:49:50;25.60;64.40
22416;DHT22;12204;50.600;4.608;2022-07-23T11:00:55;25.60;65.00
22416;DHT22;12204;50.600;4.608;2022-07-23T11:05:59;25.60;64.70
22416;DHT22;12204;50.600;4.608;2022-07-23T11:11:10;25.60;65.30
22416;DHT22;12204;50.600;4.608;2022-07-23T11:16:21;25.70;64.20
22416;DHT22;12204;50.600;4.608;2022-07-23T11:21:46;25.70;64.80
22416;DHT22;12204;50.600;4.608;2022-07-23T11:27:02;25.70;65.20
22416;DHT22;12204;50.600;4.608;2022-07-23T11:32:23;25.70;65.20
22416;DHT22;12204;50.600;4.608;2022-07-23T11:37:36;25.70;65.80
22416;DHT22;12204;50.600;4.608;2022-07-23T11:42:54;25.70;65.60
22416;DHT22;12204;50.600;4.608;2022-07-23T11:48:00;25.70;64.90
22416;DHT22;12204;50.600;4.608;2022-07-23T11:53:04;25.80;64.70
22416;DHT22;12204;50.600;4.608;2022-07-23T11:58:10;25.80;64.80
22416;DHT22;12204;50.600;4.608;2022-07-23T12:03:14;25.70;63.20
22416;DHT22;12204;50.600;4.608;2022-07-23T12:08:18;25.70;63.50
22416;DHT22;12204;50.600;4.608;2022-07-23T12:13:23;25.70;63.60
22416;DHT22;12204;50.600;4.608;2022-07-23T12:18:27;25.80;63.80
22416;DHT22;12204;50.600;4.608;2022-07-23T12:23:31;25.70;63.50
22416;DHT22;12204;50.600;4.608;2022-07-23T12:28:36;25.80;63.30
22416;DHT22;12204;50.600;4.608;2022-07-23T12:33:41;25.80;63.20
22416;DHT22;12204;50.600;4.608;2022-07-23T12:38:48;25.80;62.60
22416;DHT22;12204;50.600;4.608;2022-07-23T12:43:53;25.80;62.30
22416;DHT22;12204;50.600;4.608;2022-07-23T12:48:57;25.70;62.00
22416;DHT22;12204;50.600;4.608;2022-07-23T12:54:05;25.80;62.00
22416;DHT22;12204;50.600;4.608;2022-07-23T12:59:14;25.80;62.40
22416;DHT22;12204;50.600;4.608;2022-07-23T13:04:21;25.80;62.60
22416;DHT22;12204;50.600;4.608;2022-07-23T13:09:28;25.80;62.00
22416;DHT22;12204;50.600;4.608;2022-07-23T13:14:41;25.80;62.20
22416;DHT22;12204;50.600;4.608;2022-07-23T13:19:44;25.80;62.20
22416;DHT22;12204;50.600;4.608;2022-07-23T13:24:48;25.90;61.60
22416;DHT22;12204;50.600;4.608;2022-07-23T13:29:54;25.90;62.10
22416;DHT22;12204;50.600;4.608;2022-07-23T13:34:58;25.90;61.80
22416;DHT22;12204;50.600;4.608;2022-07-23T13:40:03;25.90;62.40
22416;DHT22;12204;50.600;4.608;2022-07-23T13:45:20;25.90;61.60
22416;DHT22;12204;50.600;4.608;2022-07-23T13:50:31;25.90;62.00
22416;DHT22;12204;50.600;4.608;2022-07-23T13:55:34;26.00;60.60
22416;DHT22;12204;50.600;4.608;2022-07-23T14:00:42;26.00;60.70
22416;DHT22;12204;50.600;4.608;2022-07-23T14:05:55;26.00;62.10
22416;DHT22;12204;50.600;4.608;2022-07-23T14:10:59;26.00;60.90
22416;DHT22;12204;50.600;4.608;2022-07-23T14:16:09;26.00;60.70
22416;DHT22;12204;50.600;4.608;2022-07-23T14:21:13;26.10;59.90
22416;DHT22;12204;50.600;4.608;2022-07-23T14:26:17;26.00;59.40
22416;DHT22;12204;50.600;4.608;2022-07-23T14:31:23;26.00;59.30
22416;DHT22;12204;50.600;4.608;2022-07-23T14:36:26;26.00;59.90
22416;DHT22;12204;50.600;4.608;2022-07-23T14:41:30;26.00;59.40
22416;DHT22;12204;50.600;4.608;2022-07-23T14:46:36;26.10;59.70
22416;DHT22;12204;50.600;4.608;2022-07-23T14:51:40;26.10;59.50
22416;DHT22;12204;50.600;4.608;2022-07-23T14:56:45;26.10;58.90
22416;DHT22;12204;50.600;4.608;2022-07-23T15:01:51;26.10;58.90
22416;DHT22;12204;50.600;4.608;2022-07-23T15:06:56;26.10;58.40
22416;DHT22;12204;50.600;4.608;2022-07-23T15:11:59;26.20;58.70
22416;DHT22;12204;50.600;4.608;2022-07-23T15:17:05;26.20;58.30
22416;DHT22;12204;50.600;4.608;2022-07-23T15:22:08;26.20;57.80
22416;DHT22;12204;50.600;4.608;2022-07-23T15:27:12;26.30;57.80
22416;DHT22;12204;50.600;4.608;2022-07-23T15:32:17;26.30;57.80
22416;DHT22;12204;50.600;4.608;2022-07-23T15:37:22;26.30;57.40
22416;DHT22;12204;50.600;4.608;2022-07-23T15:42:26;26.30;57.70
22416;DHT22;12204;50.600;4.608;2022-07-23T15:47:51;26.40;57.60
22416;DHT22;12204;50.600;4.608;2022-07-23T15:52:55;26.50;57.60
22416;DHT22;12204;50.600;4.608;2022-07-23T15:57:59;26.40;57.50
22416;DHT22;12204;50.600;4.608;2022-07-23T16:03:06;26.40;57.30
22416;DHT22;12204;50.600;4.608;2022-07-23T16:08:10;26.50;56.60
22416;DHT22;12204;50.600;4.608;2022-07-23T16:13:14;26.50;56.10
22416;DHT22;12204;50.600;4.608;2022-07-23T16:18:19;26.50;56.00
22416;DHT22;12204;50.600;4.608;2022-07-23T16:23:24;26.60;55.90
22416;DHT22;12204;50.600;4.608;2022-07-23T16:28:28;26.60;55.90
22416;DHT22;12204;50.600;4.608;2022-07-23T16:33:33;26.70;56.00
22416;DHT22;12204;50.600;4.608;2022-07-23T16:38:38;26.70;55.60
22416;DHT22;12204;50.600;4.608;2022-07-23T16:43:42;26.80;55.90
22416;DHT22;12204;50.600;4.608;2022-07-23T16:48:47;26.90;56.80
22416;DHT22;12204;50.600;4.608;2022-07-23T16:53:51;27.10;57.10
22416;DHT22;12204;50.600;4.608;2022-07-23T16:58:58;27.20;57.10
22416;DHT22;12204;50.600;4.608;2022-07-23T17:04:04;27.20;58.00
22416;DHT22;12204;50.600;4.608;2022-07-23T17:09:08;27.20;58.20
22416;DHT22;12204;50.600;4.608;2022-07-23T17:14:12;27.30;58.10
22416;DHT22;12204;50.600;4.608;2022-07-23T17:19:18;27.30;57.40
22416;DHT22;12204;50.600;4.608;2022-07-23T17:24:22;27.30;57.00
22416;DHT22;12204;50.600;4.608;2022-07-23T17:29:28;27.30;57.00
22416;DHT22;12204;50.600;4.608;2022-07-23T17:34:33;27.20;57.20
22416;DHT22;12204;50.600;4.608;2022-07-23T17:39:36;27.10;57.10
22416;DHT22;12204;50.600;4.608;2022-07-23T17:44:40;27.10;56.90
22416;DHT22;12204;50.600;4.608;2022-07-23T17:49:45;27.10;56.50
22416;DHT22;12204;50.600;4.608;2022-07-23T17:54:49;27.00;56.20
22416;DHT22;12204;50.600;4.608;2022-07-23T17:59:52;27.00;56.00
22416;DHT22;12204;50.600;4.608;2022-07-23T18:04:57;26.90;55.70
22416;DHT22;12204;50.600;4.608;2022-07-23T18:10:01;26.90;55.50
22416;DHT22;12204;50.600;4.608;2022-07-23T18:15:06;26.90;56.30
22416;DHT22;12204;50.600;4.608;2022-07-23T18:20:13;26.90;56.20
22416;DHT22;12204;50.600;4.608;2022-07-23T18:25:19;26.90;56.30
22416;DHT22;12204;50.600;4.608;2022-07-23T18:30:26;26.90;55.90
22416;DHT22;12204;50.600;4.608;2022-07-23T18:35:31;26.90;56.00
22416;DHT22;12204;50.600;4.608;2022-07-23T18:40:35;26.90;56.40
22416;DHT22;12204;50.600;4.608;2022-07-23T18:45:40;26.90;56.30
22416;DHT22;12204;50.600;4.608;2022-07-23T18:50:46;26.90;56.60
22416;DHT22;12204;50.600;4.608;2022-07-23T18:55:53;26.90;56.70
22416;DHT22;12204;50.600;4.608;2022-07-23T19:00:57;26.90;56.90
22416;DHT22;12204;50.600;4.608;2022-07-23T19:06:02;26.90;57.20
22416;DHT22;12204;50.600;4.608;2022-07-23T19:11:07;26.90;57.60
22416;DHT22;12204;50.600;4.608;2022-07-23T19:16:11;26.80;57.80
22416;DHT22;12204;50.600;4.608;2022-07-23T19:21:16;26.90;58.10
22416;DHT22;12204;50.600;4.608;2022-07-23T19:26:20;26.80;58.20
22416;DHT22;12204;50.600;4.608;2022-07-23T19:31:24;26.80;58.70
22416;DHT22;12204;50.600;4.608;2022-07-23T19:36:29;26.80;58.60
22416;DHT22;12204;50.600;4.608;2022-07-23T19:41:33;26.80;58.80
22416;DHT22;12204;50.600;4.608;2022-07-23T19:46:37;26.80;59.00
22416;DHT22;12204;50.600;4.608;2022-07-23T19:51:43;26.70;59.00
22416;DHT22;12204;50.600;4.608;2022-07-23T19:56:46;26.70;59.10
22416;DHT22;12204;50.600;4.608;2022-07-23T20:01:50;26.70;59.30
22416;DHT22;12204;50.600;4.608;2022-07-23T20:06:56;26.70;59.40
22416;DHT22;12204;50.600;4.608;2022-07-23T20:12:00;26.60;59.50
22416;DHT22;12204;50.600;4.608;2022-07-23T20:17:03;26.70;59.60
22416;DHT22;12204;50.600;4.608;2022-07-23T20:22:09;26.60;59.60
22416;DHT22;12204;50.600;4.608;2022-07-23T20:27:13;26.60;59.70
22416;DHT22;12204;50.600;4.608;2022-07-23T20:32:17;26.60;59.90
22416;DHT22;12204;50.600;4.608;2022-07-23T20:37:22;26.60;60.00
22416;DHT22;12204;50.600;4.608;2022-07-23T20:42:26;26.60;60.10
22416;DHT22;12204;50.600;4.608;2022-07-23T20:47:29;26.60;60.20
22416;DHT22;12204;50.600;4.608;2022-07-23T20:52:34;26.60;60.80
22416;DHT22;12204;50.600;4.608;2022-07-23T20:57:39;26.60;61.70
22416;DHT22;12204;50.600;4.608;2022-07-23T21:02:44;26.60;62.50
22416;DHT22;12204;50.600;4.608;2022-07-23T21:07:49;26.60;63.10
22416;DHT22;12204;50.600;4.608;2022-07-23T21:12:53;26.60;63.20
22416;DHT22;12204;50.600;4.608;2022-07-23T21:17:56;26.60;63.40
22416;DHT22;12204;50.600;4.608;2022-07-23T21:23:01;26.60;63.40
22416;DHT22;12204;50.600;4.608;2022-07-23T21:28:05;26.60;63.30
22416;DHT22;12204;50.600;4.608;2022-07-23T21:33:08;26.60;63.20
22416;DHT22;12204;50.600;4.608;2022-07-23T21:38:13;26.60;63.20
22416;DHT22;12204;50.600;4.608;2022-07-23T21:43:17;26.60;63.30
22416;DHT22;12204;50.600;4.608;2022-07-23T21:48:24;26.50;63.20
22416;DHT22;12204;50.600;4.608;2022-07-23T21:53:29;26.60;63.30
22416;DHT22;12204;50.600;4.608;2022-07-23T21:58:33;26.60;63.40
22416;DHT22;12204;50.600;4.608;2022-07-23T22:03:36;26.50;63.90
22416;DHT22;12204;50.600;4.608;2022-07-23T22:08:41;26.50;63.10
22416;DHT22;12204;50.600;4.608;2022-07-23T22:13:45;26.50;63.10
22416;DHT22;12204;50.600;4.608;2022-07-23T22:18:49;26.50;63.30
22416;DHT22;12204;50.600;4.608;2022-07-23T22:23:54;26.60;64.20
22416;DHT22;12204;50.600;4.608;2022-07-23T22:28:58;26.60;65.10
22416;DHT22;12204;50.600;4.608;2022-07-23T22:34:02;26.60;64.80
22416;DHT22;12204;50.600;4.608;2022-07-23T22:39:07;26.60;64.70
22416;DHT22;12204;50.600;4.608;2022-07-23T22:44:12;26.60;64.40
22416;DHT22;12204;50.600;4.608;2022-07-23T22:49:15;26.60;63.50
22416;DHT22;12204;50.600;4.608;2022-07-23T22:54:20;26.60;64.10
22416;DHT22;12204;50.600;4.608;2022-07-23T22:59:24;26.60;63.80
22416;DHT22;12204;50.600;4.608;2022-07-23T23:04:31;26.60;63.40
22416;DHT22;12204;50.600;4.608;2022-07-23T23:09:36;26.60;63.30
22416;DHT22;12204;50.600;4.608;2022-07-23T23:14:40;26.60;63.50
22416;DHT22;12204;50.600;4.608;2022-07-23T23:19:44;26.60;63.10
22416;DHT22;12204;50.600;4.608;2022-07-23T23:24:49;26.50;63.10
22416;DHT22;12204;50.600;4.608;2022-07-23T23:29:53;26.50;63.00
22416;DHT22;12204;50.600;4.608;2022-07-23T23:34:57;26.50;63.20
22416;DHT22;12204;50.600;4.608;2022-07-23T23:40:02;26.50;63.10
22416;DHT22;12204;50.600;4.608;2022-07-23T23:45:09;26.50;62.70
22416;DHT22;12204;50.600;4.608;2022-07-23T23:50:13;26.50;63.10
22416;DHT22;12204;50.600;4.608;2022-07-23T23:55:19;26.40;63.20
